Time;durP1;ratioP1;P1;durP2;ratioP2;P2;SDS_P1;SDS_P2;PMS_P1;PMS_P2;Temp;Humidity;BMP_temperature;BMP_pressure;BME280_temperature;BME280_humidity;BME280_pressure;Samples;Min_cycle;Max_cycle;Signal;HPM_P1;HPM_P2
2023/11/22 00:00:09;;;;;;;26.13;19.92;;;;;;;;;;4968159;28;20045;-60
2023/11/22 00:02:35;;;;;;;32.15;21.45;;;;;;;;;;4968656;28;20138;-60
2023/11/22 00:05:01;;;;;;;25.38;21.40;;;;;;;;;;4968723;28;20125;-60
2023/11/22 00:07:30;;;;;;;27.95;21.10;;;;;;;;;;4969392;28;20043;-60
2023/11/22 00:09:56;;;;;;;28.42;20.48;;;;;;;;;;4956720;28;20523;-61
2023/11/22 00:12:22;;;;;;;25.70;19.20;;;;;;;;;;4975622;28;20026;-61
2023/11/22 00:14:49;;;;;;;28.98;20.35;;;;;;;;;;4975476;28;20113;-61
2023/11/22 00:17:17;;;;;;;26.45;20.77;;;;;;;;;;4973142;28;20105;-61
2023/11/22 00:19:44;;;;;;;23.90;19.27;;;;;;;;;;4971409;28;20113;-61
2023/11/22 00:22:13;;;;;;;29.00;20.65;;;;;;;;;;4979968;28;20018;-61
2023/11/22 00:24:39;;;;;;;27.55;20.52;;;;;;;;;;4980985;28;20030;-61
2023/11/22 00:27:06;;;;;;;24.00;19.42;;;;;;;;;;4974375;28;20023;-61
2023/11/22 00:29:32;;;;;;;23.63;19.23;;;;;;;;;;4974332;28;20037;-60
2023/11/22 00:31:58;;;;;;;27.70;19.55;;;;;;;;;;4974291;28;20074;-61
2023/11/22 00:34:24;;;;;;;23.08;18.73;;;;;;;;;;4974919;28;20065;-61
2023/11/22 00:36:50;;;;;;;24.02;19.13;;;;;;;;;;4974235;28;20027;-61
2023/11/22 00:39:17;;;;;;;23.80;18.52;;;;;;;;;;4974109;28;20101;-61
2023/11/22 00:41:44;;;;;;;23.90;18.73;;;;;;;;;;4974092;28;20106;-61
2023/11/22 00:44:10;;;;;;;26.25;18.08;;;;;;;;;;4974324;28;20030;-61
2023/11/22 00:46:37;;;;;;;23.77;17.88;;;;;;;;;;4973720;28;20031;-61
2023/11/22 00:49:04;;;;;;;22.92;17.85;;;;;;;;;;4973008;28;20109;-61
2023/11/22 00:51:31;;;;;;;23.27;18.73;;;;;;;;;;4973798;28;20054;-61
2023/11/22 00:53:57;;;;;;;23.27;17.35;;;;;;;;;;4974084;28;20042;-60
2023/11/22 00:56:23;;;;;;;23.50;16.30;;;;;;;;;;4975346;28;20031;-61
2023/11/22 00:58:49;;;;;;;21.02;17.00;;;;;;;;;;4973660;28;20453;-61
2023/11/22 01:01:16;;;;;;;25.42;17.88;;;;;;;;;;4972616;28;20034;-61
2023/11/22 01:03:42;;;;;;;19.70;16.35;;;;;;;;;;4972403;28;20130;-60
2023/11/22 01:06:09;;;;;;;21.45;15.93;;;;;;;;;;4973355;28;20110;-60
2023/11/22 01:08:35;;;;;;;20.20;16.88;;;;;;;;;;4955123;28;20094;-60
2023/11/22 01:11:03;;;;;;;22.50;16.50;;;;;;;;;;4974286;28;20041;-60
2023/11/22 01:13:29;;;;;;;20.00;16.02;;;;;;;;;;4962157;28;20105;-60
2023/11/22 01:15:55;;;;;;;22.08;15.77;;;;;;;;;;4974702;28;20102;-60
2023/11/22 01:18:21;;;;;;;23.33;16.17;;;;;;;;;;4974383;28;20072;-60
2023/11/22 01:20:47;;;;;;;20.85;16.88;;;;;;;;;;4972386;28;20022;-60
2023/11/22 01:23:14;;;;;;;23.10;16.48;;;;;;;;;;4974055;28;20023;-61
2023/11/22 01:25:40;;;;;;;21.83;16.35;;;;;;;;;;4972157;28;20019;-61
2023/11/22 01:28:06;;;;;;;19.60;15.35;;;;;;;;;;4973195;28;20047;-61
2023/11/22 01:30:32;;;;;;;21.77;15.60;;;;;;;;;;4973042;28;20035;-60
2023/11/22 01:32:59;;;;;;;20.02;15.77;;;;;;;;;;4974210;28;20126;-61
2023/11/22 01:35:24;;;;;;;21.10;16.45;;;;;;;;;;4972486;28;20034;-61
2023/11/22 01:37:51;;;;;;;20.08;16.17;;;;;;;;;;4974028;28;20053;-61
2023/11/22 01:40:19;;;;;;;22.13;16.10;;;;;;;;;;4971254;28;20058;-61
2023/11/22 01:42:46;;;;;;;19.45;15.55;;;;;;;;;;4972451;28;20366;-61
2023/11/22 01:45:12;;;;;;;21.48;15.38;;;;;;;;;;4971466;28;20077;-61
2023/11/22 01:47:39;;;;;;;21.63;16.20;;;;;;;;;;4973814;28;20042;-61
2023/11/22 01:50:09;;;;;;;17.80;15.07;;;;;;;;;;4972952;28;20069;-61
2023/11/22 01:52:35;;;;;;;18.50;14.48;;;;;;;;;;4973037;28;20039;-60
2023/11/22 01:55:04;;;;;;;21.17;15.63;;;;;;;;;;4972302;28;20062;-61
2023/11/22 01:57:30;;;;;;;18.67;14.75;;;;;;;;;;4965820;28;20085;-61
2023/11/22 01:59:56;;;;;;;17.48;15.10;;;;;;;;;;4973725;28;20041;-61
2023/11/22 02:02:23;;;;;;;22.65;16.50;;;;;;;;;;4962675;28;20039;-61
2023/11/22 02:04:49;;;;;;;18.30;14.90;;;;;;;;;;4969536;28;20041;-61
2023/11/22 02:07:15;;;;;;;20.88;15.05;;;;;;;;;;4969035;28;20121;-61
2023/11/22 02:09:42;;;;;;;21.52;15.93;;;;;;;;;;4968371;28;20026;-60
2023/11/22 02:12:08;;;;;;;19.90;16.02;;;;;;;;;;4972822;28;20027;-61
2023/11/22 02:14:34;;;;;;;18.77;14.95;;;;;;;;;;4972176;28;20034;-61
2023/11/22 02:17:00;;;;;;;20.38;15.73;;;;;;;;;;4971901;28;21832;-61
2023/11/22 02:19:26;;;;;;;20.77;15.55;;;;;;;;;;4968108;28;20038;-61
2023/11/22 02:21:52;;;;;;;20.60;15.88;;;;;;;;;;4972754;28;20400;-61
2023/11/22 02:24:18;;;;;;;18.95;14.52;;;;;;;;;;4972411;28;20034;-61
2023/11/22 02:26:47;;;;;;;20.77;15.07;;;;;;;;;;4963635;28;20170;-60
2023/11/22 02:29:13;;;;;;;19.02;14.93;;;;;;;;;;4969444;28;20201;-61
2023/11/22 02:31:40;;;;;;;20.42;15.55;;;;;;;;;;4972006;28;20194;-61
2023/11/22 02:34:06;;;;;;;19.08;14.70;;;;;;;;;;4971721;28;20035;-61
2023/11/22 02:36:32;;;;;;;20.88;14.80;;;;;;;;;;4971718;28;20045;-61
2023/11/22 02:38:58;;;;;;;18.38;13.73;;;;;;;;;;4970649;28;20034;-61
2023/11/22 02:41:25;;;;;;;20.67;14.85;;;;;;;;;;4971136;28;20114;-61
2023/11/22 02:43:51;;;;;;;19.10;15.07;;;;;;;;;;4952180;28;20373;-61
2023/11/22 02:46:17;;;;;;;22.02;14.98;;;;;;;;;;4963525;28;20058;-61
2023/11/22 02:48:45;;;;;;;17.92;14.57;;;;;;;;;;4972193;28;20135;-60
2023/11/22 02:51:11;;;;;;;19.58;13.98;;;;;;;;;;4971617;28;20031;-60
2023/11/22 02:53:37;;;;;;;19.05;14.73;;;;;;;;;;4971878;28;20038;-60
2023/11/22 02:56:03;;;;;;;23.17;15.93;;;;;;;;;;4971131;28;20057;-61
2023/11/22 02:58:30;;;;;;;20.98;15.50;;;;;;;;;;4969595;28;20162;-61
2023/11/22 03:00:57;;;;;;;20.88;15.55;;;;;;;;;;4972151;28;20023;-61
2023/11/22 03:03:23;;;;;;;21.17;15.73;;;;;;;;;;4970482;28;20042;-60
2023/11/22 03:05:53;;;;;;;19.35;14.90;;;;;;;;;;4971858;28;20037;-63
2023/11/22 03:08:19;;;;;;;22.48;15.10;;;;;;;;;;4970534;28;20039;-60
2023/11/22 03:10:45;;;;;;;20.33;16.88;;;;;;;;;;4953517;28;20117;-60
2023/11/22 03:13:11;;;;;;;19.55;15.73;;;;;;;;;;4971530;28;20118;-60
2023/11/22 03:15:37;;;;;;;21.98;16.33;;;;;;;;;;4970660;28;20373;-60
2023/11/22 03:18:04;;;;;;;20.90;15.98;;;;;;;;;;4953562;28;20125;-60
2023/11/22 03:20:32;;;;;;;23.30;16.88;;;;;;;;;;4968821;28;20114;-60
2023/11/22 03:22:58;;;;;;;19.00;15.20;;;;;;;;;;4968193;28;20488;-60
2023/11/22 03:25:24;;;;;;;22.08;15.27;;;;;;;;;;4966072;28;20077;-60
2023/11/22 03:27:51;;;;;;;22.70;16.33;;;;;;;;;;4971811;28;20391;-60
2023/11/22 03:30:17;;;;;;;21.48;16.48;;;;;;;;;;4969004;28;20062;-60
2023/11/22 03:32:43;;;;;;;21.70;16.02;;;;;;;;;;4970741;28;20034;-60
2023/11/22 03:35:10;;;;;;;23.33;16.48;;;;;;;;;;4968878;28;20472;-60
2023/11/22 03:37:37;;;;;;;20.33;15.55;;;;;;;;;;4971923;28;20468;-60
2023/11/22 03:40:03;;;;;;;22.85;16.65;;;;;;;;;;4954390;28;20049;-60
2023/11/22 03:42:29;;;;;;;20.75;16.45;;;;;;;;;;4968343;28;20031;-60
2023/11/22 03:44:55;;;;;;;21.23;16.38;;;;;;;;;;4970823;28;20450;-61
2023/11/22 03:47:21;;;;;;;20.40;15.98;;;;;;;;;;4971428;28;20097;-60
2023/11/22 03:49:47;;;;;;;20.80;15.98;;;;;;;;;;4969799;28;20034;-60
2023/11/22 03:52:14;;;;;;;20.17;15.70;;;;;;;;;;4967632;28;20425;-60
2023/11/22 03:54:40;;;;;;;22.05;16.35;;;;;;;;;;4964875;28;20457;-61
2023/11/22 03:57:06;;;;;;;21.40;16.80;;;;;;;;;;4970885;28;20042;-61
2023/11/22 03:59:32;;;;;;;22.10;15.45;;;;;;;;;;4971507;28;20035;-61
2023/11/22 04:01:58;;;;;;;20.85;15.65;;;;;;;;;;4970637;28;20361;-60
2023/11/22 04:04:24;;;;;;;21.90;16.90;;;;;;;;;;4954388;28;20043;-60
2023/11/22 04:06:50;;;;;;;21.35;16.58;;;;;;;;;;4970441;28;20441;-61
2023/11/22 04:09:19;;;;;;;20.58;15.48;;;;;;;;;;4969873;28;20046;-61
2023/11/22 04:11:47;;;;;;;19.65;15.80;;;;;;;;;;4970954;28;20050;-61
2023/11/22 04:14:13;;;;;;;22.10;16.85;;;;;;;;;;4971383;28;20038;-61
2023/11/22 04:16:39;;;;;;;21.98;16.13;;;;;;;;;;4971806;28;20026;-61
2023/11/22 04:19:05;;;;;;;26.20;15.73;;;;;;;;;;4970352;28;20077;-61
2023/11/22 04:21:31;;;;;;;23.00;16.85;;;;;;;;;;4968675;28;20389;-60
2023/11/22 04:23:57;;;;;;;21.60;17.10;;;;;;;;;;4970902;28;20042;-61
2023/11/22 04:26:24;;;;;;;24.05;17.33;;;;;;;;;;4971670;28;20042;-61
2023/11/22 04:28:50;;;;;;;23.98;19.10;;;;;;;;;;4970553;28;20142;-61
2023/11/22 04:31:16;;;;;;;25.10;19.15;;;27.00;99.90;;;;;;4964786;28;20185;-61
2023/11/22 04:33:41;;;;;;;26.70;19.95;;;26.60;99.90;;;;;;4971471;28;20533;-61
2023/11/22 04:36:07;;;;;;;27.42;19.45;;;26.40;99.90;;;;;;4969870;28;20033;-60
2023/11/22 04:38:34;;;;;;;26.23;21.15;;;26.40;99.90;;;;;;4969768;28;20113;-60
2023/11/22 04:40:59;;;;;;;27.75;20.85;;;26.40;99.90;;;;;;4969004;28;20388;-61
2023/11/22 04:43:25;;;;;;;25.80;18.70;;;26.40;99.90;;;;;;4970563;28;20031;-61
2023/11/22 04:45:51;;;;;;;23.40;19.63;;;26.30;99.90;;;;;;4970103;28;20026;-61
2023/11/22 04:48:16;;;;;;;25.90;18.92;;;26.40;99.90;;;;;;4968088;28;20440;-61
2023/11/22 04:50:42;;;;;;;27.63;18.55;;;26.30;99.90;;;;;;4970629;28;20113;-61
2023/11/22 04:53:09;;;;;;;24.80;18.90;;;26.30;99.90;;;;;;4970241;28;20085;-60
2023/11/22 04:55:35;;;;;;;24.73;18.02;;;26.30;99.90;;;;;;4971525;28;20137;-61
2023/11/22 04:58:00;;;;;;;26.35;18.77;;;26.30;99.90;;;;;;4972891;28;20117;-61
2023/11/22 05:00:26;;;;;;;21.17;18.40;;;26.30;99.90;;;;;;4974207;28;20031;-61
2023/11/22 05:02:51;;;;;;;24.33;17.88;;;26.30;99.90;;;;;;4971659;28;20102;-60
2023/11/22 05:05:17;;;;;;;26.50;17.75;;;26.20;99.90;;;;;;4955434;28;20074;-61
2023/11/22 05:07:44;;;;;;;24.58;18.25;;;26.30;99.90;;;;;;4972839;28;20022;-60
2023/11/22 05:10:10;;;;;;;28.95;20.15;;;26.20;99.90;;;;;;4957325;28;20113;-61
2023/11/22 05:12:36;;;;;;;24.48;18.60;;;;;;;;;;4957181;28;20256;-61
2023/11/22 05:15:02;;;;;;;26.73;19.40;;;;;;;;;;4974028;28;20031;-61
2023/11/22 05:17:28;;;;;;;23.70;18.63;;;;;;;;;;4973183;28;20038;-60
2023/11/22 05:19:54;;;;;;;24.95;19.35;;;;;;;;;;4974046;28;20523;-61
2023/11/22 05:22:20;;;;;;;26.15;19.90;;;;;;;;;;4967603;28;20034;-61
2023/11/22 05:24:46;;;;;;;24.52;19.08;;;;;;;;;;4956579;28;20391;-61
2023/11/22 05:27:13;;;;;;;29.70;19.83;;;;;;;;;;4973982;28;20023;-62
2023/11/22 05:29:39;;;;;;;24.17;19.30;;;;;;;;;;4972619;28;20037;-61
2023/11/22 05:32:06;;;;;;;32.47;19.98;;;;;;;;;;4973086;28;20183;-61
2023/11/22 05:34:32;;;;;;;27.23;20.80;;;;;;;;;;4972894;28;20113;-61
2023/11/22 05:36:59;;;;;;;25.17;20.10;;;;;;;;;;4971150;28;20485;-61
2023/11/22 05:39:25;;;;;;;26.63;20.50;;;;;;;;;;4972058;28;20053;-61
2023/11/22 05:41:54;;;;;;;26.40;19.83;;;;;;;;;;4972965;28;20031;-60
2023/11/22 05:44:20;;;;;;;28.00;19.88;;;;;;;;;;4974149;28;20035;-60
2023/11/22 05:46:46;;;;;;;29.30;20.90;;;;;;;;;;4973870;28;20037;-61
2023/11/22 05:49:12;;;;;;;25.60;20.67;;;;;;;;;;4973842;28;20342;-60
2023/11/22 05:51:38;;;;;;;26.13;19.85;;;;;;;;;;4972239;28;20035;-60
2023/11/22 05:54:04;;;;;;;27.23;19.88;;;;;;;;;;4972999;28;20377;-60
2023/11/22 05:56:31;;;;;;;29.15;20.30;;;;;;;;;;4972574;28;20033;-60
2023/11/22 05:58:57;;;;;;;27.90;19.88;;;;;;;;;;4955703;28;20485;-60
2023/11/22 06:01:23;;;;;;;26.92;19.67;;;;;;;;;;4973503;28;20031;-60
2023/11/22 06:03:49;;;;;;;24.73;19.13;;;;;;;;;;4974127;28;20089;-60
2023/11/22 06:06:15;;;;;;;23.20;19.15;;;;;;;;;;4973434;28;20027;-60
2023/11/22 06:08:42;;;;;;;29.42;19.63;;;;;;;;;;4973241;28;20144;-60
2023/11/22 06:11:08;;;;;;;29.98;19.30;;;;;;;;;;4972163;28;20022;-60
2023/11/22 06:13:34;;;;;;;27.50;20.20;;;;;;;;;;4972701;28;21044;-60
2023/11/22 06:16:00;;;;;;;28.45;19.35;;;;;;;;;;4971651;28;20031;-60
2023/11/22 06:18:29;;;;;;;24.13;18.35;;;;;;;;;;4972814;28;20043;-60
2023/11/22 06:20:56;;;;;;;26.33;18.88;;;;;;;;;;4971535;28;20556;-60
2023/11/22 06:23:22;;;;;;;23.45;18.02;;;;;;;;;;4972014;28;20476;-60
2023/11/22 06:25:48;;;;;;;22.30;17.35;;;;;;;;;;4972439;28;20031;-60
2023/11/22 06:28:14;;;;;;;26.08;18.15;;;;;;;;;;4972383;28;20043;-60
2023/11/22 06:30:40;;;;;;;23.05;17.55;;;;;;;;;;4970987;28;20043;-60
2023/11/22 06:33:07;;;;;;;26.27;17.85;;;;;;;;;;4972290;28;20133;-60
2023/11/22 06:35:33;;;;;;;25.80;16.90;;;;;;;;;;4972314;28;20128;-60
2023/11/22 06:37:59;;;;;;;22.63;17.00;;;;;;;;;;4972875;28;20121;-61
2023/11/22 06:40:25;;;;;;;26.50;18.52;;;;;;;;;;4961251;28;20114;-61
2023/11/22 06:42:51;;;;;;;24.35;15.88;;;;;;;;;;4972820;28;20027;-63
2023/11/22 06:45:17;;;;;;;25.35;17.27;;;;;;;;;;4976975;28;20031;-62
2023/11/22 06:47:44;;;;;;;21.08;16.98;;;;;;;;;;4972195;28;20030;-62
2023/11/22 06:50:10;;;;;;;23.30;16.92;;;;;;;;;;4968156;28;20027;-63
2023/11/22 06:52:38;;;;;;;27.10;17.42;;;;;;;;;;4972666;28;20034;-63
2023/11/22 06:55:04;;;;;;;25.42;17.25;;;;;;;;;;4968377;28;20118;-62
2023/11/22 06:57:30;;;;;;;22.30;17.85;;;;;;;;;;4969646;28;20090;-62
2023/11/22 06:59:56;;;;;;;27.33;21.20;;;;;;;;;;4972822;28;20039;-62
2023/11/22 07:02:22;;;;;;;22.77;16.80;;;;;;;;;;4967233;28;20041;-62
2023/11/22 07:04:48;;;;;;;22.83;17.33;;;;;;;;;;4970770;28;20066;-63
2023/11/22 07:07:14;;;;;;;23.95;16.42;;;;;;;;;;4969833;28;20578;-63
2023/11/22 07:09:44;;;;;;;25.80;15.60;;;;;;;;;;4969781;28;20111;-55
2023/11/22 07:12:10;;;;;;;21.77;15.52;;;;;;;;;;4968684;28;20019;-54
2023/11/22 07:14:36;;;;;;;20.38;15.32;;;;;;;;;;4971066;28;20031;-56
2023/11/22 07:17:03;;;;;;;19.20;13.68;;;;;;;;;;4968830;28;20026;-56
2023/11/22 07:19:29;;;;;;;18.13;13.93;;;;;;;;;;4969798;28;20122;-53
2023/11/22 07:21:55;;;;;;;22.73;14.27;;;;;;;;;;4969926;28;20058;-55
2023/11/22 07:24:21;;;;;;;20.08;13.90;;;;;;;;;;4970771;28;20074;-56
2023/11/22 07:26:47;;;;;;;19.13;13.52;;;;;;;;;;4954408;28;20034;-53
2023/11/22 07:29:13;;;;;;;21.20;13.85;;;;;;;;;;4969674;28;20020;-55
2023/11/22 07:31:39;;;;;;;21.30;14.40;;;;;;;;;;4969918;28;20050;-56
2023/11/22 07:34:06;;;;;;;19.92;14.88;;;;;;;;;;4965677;28;20045;-56
2023/11/22 07:36:32;;;;;;;18.77;13.43;;;;;;;;;;4970299;28;20037;-56
2023/11/22 07:38:59;;;;;;;21.05;14.93;;;;;;;;;;4971472;28;20057;-53
2023/11/22 07:41:26;;;;;;;20.88;13.82;;;;;;;;;;4966762;28;20046;-56
2023/11/22 07:43:53;;;;;;;21.95;13.70;;;;;;;;;;4970281;28;20420;-56
2023/11/22 07:46:20;;;;;;;21.08;14.07;;;;;;;;;;4961996;28;20024;-55
2023/11/22 07:48:47;;;;;;;21.15;13.93;;;;;;;;;;4969395;28;20097;-55
2023/11/22 07:51:16;;;;;;;19.30;12.68;;;;;;;;;;4968435;28;20039;-55
2023/11/22 07:53:43;;;;;;;18.95;13.20;;;;;;;;;;4970598;28;20105;-56
2023/11/22 07:56:09;;;;;;;15.57;12.23;;;;;;;;;;4970616;28;20460;-56
2023/11/22 07:58:35;;;;;;;17.13;13.15;;;;;;;;;;4969548;28;20049;-54
2023/11/22 08:01:04;;;;;;;24.08;14.63;;;;;;;;;;4971296;28;20034;-52
2023/11/22 08:03:29;;;;;;;18.60;15.07;;;;;;;;;;4971735;28;20413;-52
2023/11/22 08:05:55;;;;;;;22.48;15.10;;;;;;;;;;4959893;28;20093;-52
2023/11/22 08:08:25;;;;;;;22.75;15.13;;;;;;;;;;4971508;28;20362;-55
2023/11/22 08:10:53;;;;;;;21.67;12.63;;;;;;;;;;4971812;28;20081;-52
2023/11/22 08:13:22;;;;;;;20.08;12.60;;;;;;;;;;4953366;28;20433;-55
2023/11/22 08:15:48;;;;;;;21.52;12.98;;;;;;;;;;4970652;28;20033;-56
2023/11/22 08:18:16;;;;;;;20.20;13.57;;;;;;;;;;4971848;28;20122;-55
2023/11/22 08:20:43;;;;;;;18.58;12.30;;;;;;;;;;4960379;28;20481;-56
2023/11/22 08:23:09;;;;;;;23.98;13.18;;;;;;;;;;4970729;28;20041;-55
2023/11/22 08:25:35;;;;;;;19.65;13.52;;;;;;;;;;4968769;28;20094;-55
2023/11/22 08:28:01;;;;;;;19.63;13.45;;;;;;;;;;4971098;28;20026;-53
2023/11/22 08:30:27;;;;;;;20.33;13.63;;;;;;;;;;4955088;28;20042;-55
2023/11/22 08:32:54;;;;;;;25.33;14.13;;;;;;;;;;4975446;28;20030;-52
2023/11/22 08:35:22;;;;;;;19.92;12.32;;;;;;;;;;4966499;28;20042;-50
2023/11/22 08:37:50;;;;;;;21.92;12.98;;;;;;;;;;4971046;28;20035;-57
2023/11/22 08:40:20;;;;;;;21.58;15.20;;;;;;;;;;4974969;28;20027;-56
2023/11/22 08:42:46;;;;;;;19.08;13.65;;;;;;;;;;4967398;28;20035;-53
2023/11/22 08:45:12;;;;;;;20.15;14.75;;;;;;;;;;4974499;28;20081;-55
2023/11/22 08:47:39;;;;;;;21.00;15.25;;;;;;;;;;4973370;28;20110;-53
2023/11/22 08:50:05;;;;;;;20.80;14.40;;;;;;;;;;4975400;28;20035;-53
2023/11/22 08:52:31;;;;;;;22.73;15.35;;;;;;;;;;4968535;28;20031;-53
2023/11/22 08:55:00;;;;;;;24.05;16.80;;;;;;;;;;4974316;28;20027;-52
2023/11/22 08:57:26;;;;;;;22.13;16.52;;;;;;;;;;4967010;28;20024;-54
2023/11/22 08:59:52;;;;;;;24.15;17.10;;;;;;;;;;4974538;28;20538;-54
2023/11/22 09:02:18;;;;;;;29.00;17.88;;;;;;;;;;4973947;28;20026;-53
2023/11/22 09:04:43;;;;;;;29.42;18.67;;;;;;;;;;4971592;28;20037;-51
2023/11/22 09:07:10;;;;;;;26.13;18.25;;;;;;;;;;4974055;28;20022;-53
2023/11/22 09:09:36;;;;;;;26.25;18.55;;;;;;;;;;4958005;28;20023;-53
2023/11/22 09:12:02;;;;;;;29.63;18.80;;;;;;;;;;4974499;28;20027;-51
2023/11/22 09:14:28;;;;;;;81.25;30.80;;;;;;;;;;4972021;28;20110;-56
2023/11/22 09:16:55;;;;;;;30.02;20.60;;;;;;;;;;4973249;28;20041;-52
2023/11/22 09:19:24;;;;;;;25.73;18.65;;;;;;;;;;4967443;28;20453;-55
2023/11/22 09:21:50;;;;;;;26.17;18.65;;;;;;;;;;4966538;28;20066;-55
2023/11/22 09:24:16;;;;;;;29.90;17.98;;;;;;;;;;4969862;28;20047;-55
2023/11/22 09:26:43;;;;;;;28.80;17.30;;;;;;;;;;4970869;28;20047;-52
2023/11/22 09:29:09;;;;;;;30.88;17.55;;;;;;;;;;4973454;28;20110;-52
2023/11/22 09:31:36;;;;;;;26.08;17.45;;;;;;;;;;4972284;28;20595;-51
2023/11/22 09:34:03;;;;;;;29.45;18.27;;;;;;;;;;4973679;28;20516;-52
2023/11/22 09:36:32;;;;;;;20.60;14.93;;;;;;;;;;4972266;28;20023;-52
2023/11/22 09:38:58;;;;;;;20.70;16.65;;;;;;;;;;4974318;28;20041;-56
2023/11/22 09:41:27;;;;;;;28.10;16.40;;;;;;;;;;4971478;28;20129;-56
2023/11/22 09:43:53;;;;;;;24.70;17.00;;;;;;;;;;4974813;28;20022;-56
2023/11/22 09:46:21;;;;;;;19.05;12.52;;;;;;;;;;4974083;28;20023;-53
2023/11/22 09:48:50;;;;;;;16.75;12.88;;;;;;;;;;4973291;28;20568;-54
2023/11/22 09:51:23;;;;;;;17.45;12.52;;;;;;;;;;4971851;28;20038;-55
2023/11/22 09:54:07;;;;;;;17.15;12.23;;;;;;;;;;4972165;28;20030;-52
2023/11/22 09:56:33;;;;;;;22.60;12.00;;;;;;;;;;4973720;28;20038;-54
2023/11/22 09:59:00;;;;;;;11.88;9.27;;;;;;;;;;4967272;28;20038;-57
2023/11/22 10:01:30;;;;;;;14.27;10.25;;;;;;;;;;4970938;28;20137;-56
2023/11/22 10:03:57;;;;;;;14.40;9.73;;;;;;;;;;4973366;28;20117;-56
2023/11/22 10:06:23;;;;;;;17.25;11.10;;;;;;;;;;4957727;28;20473;-53
2023/11/22 10:08:49;;;;;;;13.05;9.52;;;;;;;;;;4972033;28;20030;-56
2023/11/22 10:11:18;;;;;;;13.27;9.02;;;;;;;;;;4972553;28;20053;-53
2023/11/22 10:13:47;;;;;;;13.05;9.73;;;;;;;;;;4973357;28;20109;-55
2023/11/22 10:16:15;;;;;;;15.93;10.07;;;;;;;;;;4966273;28;20058;-52
2023/11/22 10:18:46;;;;;;;13.05;9.90;;;;;;;;;;4973479;28;20043;-55
2023/11/22 10:21:30;;;;;;;14.80;9.13;;;;;;;;;;4972003;28;20038;-55
2023/11/22 10:24:02;;;;;;;9.60;7.90;;;;;;;;;;4970779;28;20063;-55
2023/11/22 10:26:29;;;;;;;11.40;7.65;;;;;;;;;;4972318;28;20026;-53
2023/11/22 10:28:56;;;;;;;9.70;6.55;;;;;;;;;;4956264;28;20037;-54
2023/11/22 10:31:23;;;;;;;9.68;6.05;;;;;;;;;;4972035;28;20497;-54
2023/11/22 10:33:49;;;;;;;10.95;6.22;;;;;;;;;;4961393;28;20082;-57
2023/11/22 10:36:16;;;;;;;11.52;7.47;;;;;;;;;;4969708;28;20101;-54
2023/11/22 10:38:46;;;;;;;8.55;5.03;;;;;;;;;;4972385;28;20068;-57
2023/11/22 10:41:13;;;;;;;9.38;5.95;;;;;;;;;;4970999;28;20019;-52
2023/11/22 10:43:39;;;;;;;12.48;6.53;;;;;;;;;;4965735;28;20051;-51
2023/11/22 10:46:06;;;;;;;9.00;6.00;;;;;;;;;;4973811;28;20034;-54
2023/11/22 10:48:38;;;;;;;9.75;6.20;;;;;;;;;;4959965;28;20081;-52
2023/11/22 10:51:05;;;;;;;10.02;6.05;;;;;;;;;;4966246;28;20179;-52
2023/11/22 10:53:32;;;;;;;9.00;5.15;;;;;;;;;;4970074;28;20037;-51
2023/11/22 10:56:02;;;;;;;12.43;4.65;;;;;;;;;;4955477;28;20030;-50
2023/11/22 10:58:28;;;;;;;8.10;5.32;;;;;;;;;;4972779;28;20046;-52
2023/11/22 11:00:55;;;;;;;8.73;4.60;;;;;;;;;;4971234;28;20045;-56
2023/11/22 11:03:27;;;;;;;7.93;3.83;;;;;;;;;;4972647;28;20160;-54
2023/11/22 11:05:57;;;;;;;3.85;2.88;;;;;;;;;;4970394;28;20116;-56
2023/11/22 11:08:27;;;;;;;5.97;4.10;;;;;;;;;;4970742;28;20027;-53
2023/11/22 11:10:55;;;;;;;9.60;3.80;;;;;;;;;;4970176;28;20469;-57
2023/11/22 11:13:23;;;;;;;6.57;3.08;;;;;;;;;;4972572;28;20031;-60
2023/11/22 11:15:50;;;;;;;6.10;3.90;;;;;;;;;;4971950;28;20483;-62
2023/11/22 11:18:16;;;;;;;7.05;4.35;;;;;;;;;;4972093;28;20041;-60
2023/11/22 11:20:51;;;;;;;7.20;4.70;;;;;;;;;;4964963;28;20107;-67
2023/11/22 11:23:19;;;;;;;10.80;5.32;;;;;;;;;;4965817;28;20089;-67
2023/11/22 11:25:48;;;;;;;9.75;3.80;;;;;;;;;;4969034;28;20511;-68
2023/11/22 11:28:14;;;;;;;9.32;4.78;;;;;;;;;;4972434;28;20018;-68
2023/11/22 11:30:43;;;;;;;11.20;4.85;;;;;;;;;;4972232;28;20427;-67
2023/11/22 11:33:09;;;;;;;8.68;4.60;;;;;;;;;;4965486;28;20034;-66
2023/11/22 11:35:39;;;;;;;7.85;4.22;;;;;;;;;;4959391;28;20039;-65
2023/11/22 11:38:08;;;;;;;6.68;4.38;;;;;;;;;;4957363;28;20105;-65
2023/11/22 11:40:35;;;;;;;7.72;5.50;;;;;;;;;;4959800;28;20085;-65
2023/11/22 11:43:01;;;;;;;9.05;5.70;;;;;;;;;;4969116;28;20472;-65
2023/11/22 11:45:27;;;;;;;6.95;5.38;;;;;;;;;;4969682;28;20019;-65
2023/11/22 11:47:54;;;;;;;8.65;6.25;;;;;;;;;;4970679;28;20031;-65
2023/11/22 11:50:24;;;;;;;13.18;6.30;;;;;;;;;;4965129;28;20027;-65
2023/11/22 11:52:50;;;;;;;9.32;6.45;;;;;;;;;;4970431;28;20552;-65
2023/11/22 11:55:16;;;;;;;9.77;5.55;;;;;;;;;;4970982;28;20202;-66
2023/11/22 11:57:42;;;;;;;9.73;6.53;;;;;;;;;;4968023;28;20118;-65
2023/11/22 12:00:14;;;;;;;10.35;5.72;;;;;;;;;;4970505;28;20457;-66
2023/11/22 12:02:40;;;;;;;6.55;4.85;;;;;;;;;;4970791;28;20516;-65
2023/11/22 12:05:08;;;;;;;5.88;4.13;;;;;;;;;;4957541;28;20097;-66
2023/11/22 12:07:35;;;;;;;7.75;4.97;;;;;;;;;;4971785;28;20397;-66
2023/11/22 12:10:01;;;;;;;7.82;5.72;;;;;;;;;;4977560;28;20022;-66
2023/11/22 12:12:28;;;;;;;9.10;5.60;;;;;;;;;;4977104;28;20031;-65
2023/11/22 12:14:55;;;;;;;6.18;3.90;;;;;;;;;;4976472;28;20023;-66
2023/11/22 12:17:22;;;;;;;4.55;3.28;;;;;;;;;;4959736;28;20023;-65
2023/11/22 12:19:48;;;;;;;5.38;3.88;;;;;;;;;;4977223;28;20051;-65
2023/11/22 12:22:16;;;;;;;4.75;3.60;;;;;;;;;;4976858;28;20175;-66
2023/11/22 12:24:43;;;;;;;6.18;3.83;;;;;;;;;;4973397;28;20448;-66
2023/11/22 12:27:12;;;;;;;4.47;3.83;;;;;;;;;;4976323;28;20042;-66
2023/11/22 12:29:38;;;;;;;5.97;4.55;;;;;;;;;;4977737;28;20046;-66
2023/11/22 12:32:04;;;;;;;5.32;4.28;;;;;;;;;;4983415;28;20022;-66
2023/11/22 12:34:30;;;;;;;5.00;4.03;;;;;;;;;;4981770;28;20039;-66
2023/11/22 12:36:56;;;;;;;6.05;4.35;;;;;;;;;;4991059;28;20030;-66
2023/11/22 12:39:24;;;;;;;8.40;4.50;;;;;;;;;;4989886;28;20078;-66
2023/11/22 12:41:50;;;;;;;6.38;3.88;;;;;;;;;;4992708;28;20476;-65
2023/11/22 12:44:17;;;;;;;8.82;4.55;;;;;;;;;;4972339;28;20094;-65
2023/11/22 12:46:48;;;;;;;6.57;4.13;;;;;;;;;;4984544;28;20022;-66
2023/11/22 12:49:15;;;;;;;5.00;4.25;;;;;;;;;;4987227;28;20495;-65
2023/11/22 12:51:46;;;;;;;4.65;4.10;;;;;;;;;;4980487;28;20481;-66
2023/11/22 12:54:12;;;;;;;5.82;4.53;;;;;;;;;;4974591;28;20456;-66
2023/11/22 12:56:41;;;;;;;9.48;5.72;;;;;;;;;;4980306;28;20080;-66
2023/11/22 12:59:07;;;;;;;4.28;3.60;;;;;;;;;;4980862;28;20042;-67
2023/11/22 13:01:35;;;;;;;9.65;4.15;;;;;;;;;;4982173;28;20050;-67
2023/11/22 13:04:01;;;;;;;3.55;2.70;;;;;;;;;;4983318;28;20030;-66
2023/11/22 13:06:27;;;;;;;6.57;3.83;;;;;;;;;;4979218;28;20050;-66
2023/11/22 13:08:53;;;;;;;4.47;2.75;;;;;;;;;;4979197;28;20050;-66
2023/11/22 13:11:19;;;;;;;4.45;2.88;;;;;;;;;;4974351;28;20047;-66
2023/11/22 13:13:46;;;;;;;6.63;2.97;;;;;;;;;;4986397;28;20060;-65
2023/11/22 13:16:13;;;;;;;14.88;3.80;;;;;;;;;;4972806;28;20042;-65
2023/11/22 13:18:39;;;;;;;4.50;2.85;;;;;;;;;;4976065;28;20050;-66
2023/11/22 13:21:05;;;;;;;6.20;3.55;;;;;;;;;;4974200;28;20429;-66
2023/11/22 13:23:32;;;;;;;3.67;3.10;;;;;;;;;;4973219;28;20027;-66
2023/11/22 13:25:58;;;;;;;4.18;2.65;;;;;;;;;;4973642;28;20384;-66
2023/11/22 13:28:25;;;;;;;5.72;3.20;;;;;;;;;;4971381;28;20037;-65
2023/11/22 13:30:51;;;;;;;4.97;3.88;;;;;;;;;;4967855;28;20143;-65
2023/11/22 13:33:18;;;;;;;6.25;3.20;;;;;;;;;;4945208;28;20034;-65
2023/11/22 13:35:45;;;;;;;9.55;2.75;;;;;;;;;;4970971;28;20026;-66
2023/11/22 13:38:11;;;;;;;6.95;3.03;;;;;;;;;;4968738;28;20101;-65
2023/11/22 13:40:39;;;;;;;3.47;2.67;;;;;;;;;;4969531;28;20045;-65
2023/11/22 13:43:06;;;;;;;5.25;2.47;;;;;;;;;;4971121;28;20092;-65
2023/11/22 13:45:33;;;;;;;3.60;3.03;;;;;;;;;;4971140;28;20151;-66
2023/11/22 13:48:03;;;;;;;4.18;2.60;;;;;;;;;;4970257;28;20034;-66
2023/11/22 13:50:29;;;;;;;10.57;3.25;;;;;;;;;;4970169;28;20452;-66
2023/11/22 13:52:56;;;;;;;6.65;3.13;;;;;;;;;;4969693;28;20107;-66
2023/11/22 13:55:25;;;;;;;4.75;3.20;;;;;;;;;;4970228;28;20141;-66
2023/11/22 13:57:51;;;;;;;5.93;3.30;;;;;;;;;;4973122;28;20105;-66
2023/11/22 14:00:18;;;;;;;10.77;3.85;;;;;;;;;;4973850;28;20808;-66
2023/11/22 14:02:47;;;;;;;4.80;2.72;;;;;;;;;;4973739;28;20085;-65
2023/11/22 14:05:15;;;;;;;6.47;2.83;;;;;;;;;;4974046;28;20035;-66
2023/11/22 14:07:41;;;;;;;3.83;2.42;;;;;;;;;;4973584;28;20026;-66
2023/11/22 14:10:08;;;;;;;5.47;2.40;;;;;;;;;;4973048;28;20106;-66
2023/11/22 14:12:35;;;;;;;7.55;2.40;;;;;;;;;;4973632;28;20469;-66
2023/11/22 14:15:01;;;;;;;6.60;2.70;;;;;;;;;;4972308;28;20031;-66